Time;durP1;ratioP1;P1;durP2;ratioP2;P2;SDS_P1;SDS_P2;PMS_P1;PMS_P2;Temp;Humidity;BMP_temperature;BMP_pressure;BME280_temperature;BME280_humidity;BME280_pressure;Samples;Min_cycle;Max_cycle;Signal;HPM_P1;HPM_P2
2022/01/08 00:01:59;;;;;;;106.70;32.90;;;;;;;-5.60;65.69;98623.77;108201;1274;22577;-71
2022/01/08 00:04:26;;;;;;;111.00;34.80;;;;;;;-5.60;65.54;98621.90;108229;1274;22724;-72
2022/01/08 00:06:53;;;;;;;100.80;32.20;;;;;;;-5.60;65.31;98619.52;108214;1271;22565;-72
2022/01/08 00:09:20;;;;;;;109.30;35.70;;;;;;;-5.61;64.95;98617.31;108238;1274;22689;-72
2022/01/08 00:11:47;;;;;;;84.90;27.60;;;;;;;-5.62;64.80;98621.22;108247;1274;22753;-72
2022/01/08 00:14:15;;;;;;;78.60;28.80;;;;;;;-5.69;64.66;98624.63;108272;1274;22556;-72
2022/01/08 00:16:42;;;;;;;72.80;26.30;;;;;;;-5.79;64.94;98620.05;108237;1274;22649;-71
2022/01/08 00:19:09;;;;;;;70.90;24.20;;;;;;;-5.84;64.89;98615.48;108212;1274;22552;-72
2022/01/08 00:21:36;;;;;;;81.40;28.50;;;;;;;-5.87;64.84;98609.71;108214;1274;22552;-71
2022/01/08 00:24:03;;;;;;;82.50;27.10;;;;;;;-5.91;64.77;98608.89;108228;1274;22579;-71
2022/01/08 00:26:30;;;;;;;94.20;30.30;;;;;;;-5.96;64.71;98609.06;108227;1272;22774;-72
2022/01/08 00:28:57;;;;;;;88.00;30.70;;;;;;;-6.00;64.69;98608.39;108217;1274;22567;-71
2022/01/08 00:31:24;;;;;;;99.90;32.30;;;;;;;-6.05;64.83;98609.05;108202;1274;22617;-71
2022/01/08 00:33:52;;;;;;;92.20;32.80;;;;;;;-6.09;64.81;98608.55;108221;1274;22552;-71
2022/01/08 00:36:19;;;;;;;97.60;35.10;;;;;;;-6.14;64.84;98608.71;108265;1274;22628;-71
2022/01/08 00:38:45;;;;;;;118.00;41.00;;;;;;;-6.18;64.88;98606.67;108246;1274;24446;-71
2022/01/08 00:41:13;;;;;;;99.50;37.70;;;;;;;-6.17;65.05;98604.80;108241;1274;22574;-71
2022/01/08 00:43:39;;;;;;;98.30;34.40;;;;;;;-6.15;65.48;98599.38;108248;1274;24537;-71
2022/01/08 00:46:06;;;;;;;82.70;31.50;;;;;;;-6.13;66.20;98602.95;108227;1273;25576;-71
2022/01/08 00:48:34;;;;;;;83.30;30.60;;;;;;;-6.13;67.04;98606.00;108191;1274;22543;-71
2022/01/08 00:51:00;;;;;;;95.20;30.60;;;;;;;-6.11;67.69;98600.59;108236;1274;22593;-71
2022/01/08 00:53:27;;;;;;;92.80;31.80;;;;;;;-6.10;67.98;98602.63;108208;1274;22553;-70
2022/01/08 00:55:54;;;;;;;100.50;34.60;;;;;;;-6.10;68.26;98598.39;108238;1274;22540;-71
2022/01/08 00:58:21;;;;;;;112.20;37.30;;;;;;;-6.14;68.11;98595.14;108219;1274;22589;-73
2022/01/08 01:00:48;;;;;;;105.10;39.00;;;;;;;-6.15;67.85;98595.31;108245;1274;22543;-71
2022/01/08 01:03:15;;;;;;;113.50;39.10;;;;;;;-6.18;67.26;98591.09;108225;1272;22549;-71
2022/01/08 01:05:42;;;;;;;114.80;37.20;;;;;;;-6.23;67.02;98583.79;108214;1274;22545;-71
2022/01/08 01:08:09;;;;;;;111.70;37.30;;;;;;;-6.27;66.81;98583.27;108223;1274;22572;-71
2022/01/08 01:10:36;;;;;;;104.00;34.90;;;;;;;-6.32;66.42;98582.59;108216;1274;22720;-71
2022/01/08 01:13:03;;;;;;;96.30;32.10;;;;;;;-6.36;66.60;98579.02;108221;1274;22553;-72
2022/01/08 01:15:30;;;;;;;95.70;31.30;;;;;;;-6.42;66.65;98576.81;107879;1274;697029;-71
2022/01/08 01:17:57;;;;;;;82.90;27.70;;;;;;;-6.46;66.55;98573.26;108214;1274;22556;-70
2022/01/08 01:20:24;;;;;;;75.60;25.80;;;;;;;-6.50;66.60;98569.18;108201;1274;22671;-71
2022/01/08 01:25:34;;;;;;;77.20;24.10;;;;;;;-6.58;66.23;98558.16;108221;1274;22556;-72
2022/01/08 01:41:41;;;;;;;45.90;16.60;;;;;;;-6.46;68.26;98542.94;108205;1274;24241;-71
2022/01/08 01:47:03;;;;;;;49.30;17.80;;;;;;;-6.37;69.37;98544.29;108295;1274;22594;-71
2022/01/08 01:49:38;;;;;;;52.90;19.30;;;;;;;-6.37;69.27;98544.98;108265;1274;22610;-71
2022/01/08 01:52:08;;;;;;;56.60;21.30;;;;;;;-6.39;69.03;98548.19;108214;1274;24373;-70
2022/01/08 01:54:36;;;;;;;61.60;22.50;;;;;;;-6.42;68.93;98544.95;108233;1274;22543;-70
2022/01/08 01:57:06;;;;;;;64.00;26.30;;;;;;;-6.43;68.30;98541.05;108231;1274;22568;-70
2022/01/08 01:59:35;;;;;;;66.10;26.10;;;;;;;-6.47;68.10;98537.34;108233;1274;22558;-70
2022/01/08 02:02:03;;;;;;;111.40;38.60;;;;;;;-6.50;67.89;98533.42;108281;1274;22611;-71
2022/01/08 02:04:30;;;;;;;107.30;39.30;;;;;;;-6.53;67.61;98535.30;108225;1274;24221;-71
2022/01/08 02:06:58;;;;;;;111.60;40.80;;;;;;;-6.57;67.75;98534.10;108271;1274;22557;-72
2022/01/08 02:09:25;;;;;;;107.70;39.50;;;;;;;-6.61;67.41;98528.51;108234;1274;22546;-73
2022/01/08 02:12:04;;;;;;;96.70;36.30;;;;;;;-6.66;67.22;98522.91;108284;1274;22660;-73
2022/01/08 02:14:34;;;;;;;100.40;35.30;;;;;;;-6.73;67.45;98520.20;108313;1274;22558;-71
2022/01/08 02:17:03;;;;;;;85.40;32.50;;;;;;;-6.79;67.18;98516.29;108244;1274;22659;-70
2022/01/08 02:19:30;;;;;;;86.30;30.70;;;;;;;-6.84;67.54;98509.67;108727;1274;23500;-70
2022/01/08 02:21:59;;;;;;;75.80;28.20;;;;;;;-6.85;67.32;98506.62;108255;1273;22766;-71
2022/01/08 02:24:27;;;;;;;77.60;29.40;;;;;;;-6.84;67.60;98503.58;108265;1274;23492;-71
2022/01/08 02:26:54;;;;;;;66.20;27.50;;;;;;;-6.82;67.98;98499.17;108293;1274;22621;-71
2022/01/08 02:29:24;;;;;;;70.60;25.20;;;;;;;-6.80;68.74;98499.02;108576;1274;24282;-71
2022/01/08 02:32:05;;;;;;;60.10;24.60;;;;;;;-6.79;69.37;98494.26;108205;1274;22558;-71
2022/01/08 02:34:33;;;;;;;71.20;25.60;;;;;;;-6.76;69.90;98492.58;108193;1274;22552;-71
2022/01/08 02:37:00;;;;;;;61.90;23.40;;;;;;;-6.75;70.19;98489.54;108254;1274;22598;-71
2022/01/08 02:39:28;;;;;;;61.40;24.60;;;;;;;-6.71;70.16;98484.45;108311;1274;22553;-73
2022/01/08 02:41:58;;;;;;;51.70;19.80;;;;;;;-6.68;70.40;98483.77;108221;1274;22619;-71
2022/01/08 02:44:26;;;;;;;46.80;17.90;;;;;;;-6.67;70.28;98480.39;108249;1274;22643;-71
2022/01/08 02:46:54;;;;;;;53.60;18.80;;;;;;;-6.66;69.69;98477.35;108240;1274;24114;-71
2022/01/08 02:49:23;;;;;;;39.00;17.20;;;;;;;-6.66;69.19;98479.05;108222;1274;22585;-71
2022/01/08 02:51:52;;;;;;;47.30;19.40;;;;;;;-6.66;68.98;98479.89;108218;1273;22547;-71
2022/01/08 02:54:19;;;;;;;61.00;21.10;;;;;;;-6.68;68.59;98480.21;108239;1274;22581;-71
2022/01/08 02:56:47;;;;;;;59.60;23.00;;;;;;;-6.71;68.69;98475.48;108192;1274;22580;-71
2022/01/08 02:59:15;;;;;;;49.10;21.00;;;;;;;-6.76;68.63;98473.61;108201;1274;22547;-70
2022/01/08 03:01:42;;;;;;;53.30;19.90;;;;;;;-6.81;68.32;98475.14;108224;1274;23428;-71
2022/01/08 03:04:11;;;;;;;48.40;19.50;;;;;;;-6.85;68.31;98475.29;108218;1274;22556;-71
2022/01/08 03:06:38;;;;;;;50.40;18.40;;;;;;;-6.89;68.03;98473.60;108227;1274;22569;-70
2022/01/08 03:09:06;;;;;;;46.20;19.00;;;;;;;-6.94;68.20;98467.48;108227;1274;22546;-71
2022/01/08 03:11:34;;;;;;;47.20;18.30;;;;;;;-6.97;68.64;98462.40;108231;1274;22576;-73
2022/01/08 03:14:01;;;;;;;36.90;15.40;;;;;;;-6.95;68.05;98464.44;108737;1274;23166;-71
2022/01/08 03:16:28;;;;;;;44.70;17.10;;;;;;;-6.90;68.54;98464.79;108198;1274;22602;-71
2022/01/08 03:18:55;;;;;;;37.00;15.30;;;;;;;-6.84;69.06;98460.05;108233;1274;22665;-74
2022/01/08 03:21:22;;;;;;;30.50;11.70;;;;;;;-6.79;69.85;98450.73;108221;1274;22804;-72
2022/01/08 03:23:59;;;;;;;24.00;10.90;;;;;;;-6.71;70.54;98444.14;108192;1274;22733;-73
2022/01/08 03:26:28;;;;;;;24.90;10.00;;;;;;;-6.61;70.89;98445.84;108213;1274;22544;-71
2022/01/08 03:28:56;;;;;;;27.90;11.20;;;;;;;-6.52;70.91;98449.73;108246;1274;22550;-72
2022/01/08 03:31:24;;;;;;;25.20;10.80;;;;;;;-6.43;71.42;98445.84;108228;1274;25461;-71
2022/01/08 03:33:53;;;;;;;22.00;10.70;;;;;;;-6.38;70.91;98439.39;108185;1274;22605;-71
2022/01/08 03:36:22;;;;;;;23.80;10.30;;;;;;;-6.32;70.41;98436.51;108193;1274;22677;-71
2022/01/08 03:38:51;;;;;;;23.40;9.50;;;;;;;-6.26;69.95;98432.61;108216;1274;22566;-71
2022/01/08 03:41:19;;;;;;;26.20;11.00;;;;;;;-6.22;69.84;98434.13;108224;1274;23268;-71
2022/01/08 03:43:47;;;;;;;27.60;10.30;;;;;;;-6.19;69.51;98428.36;108232;1274;22542;-71
2022/01/08 03:46:14;;;;;;;24.60;9.90;;;;;;;-6.17;69.29;98423.24;108212;1274;22550;-71
2022/01/08 03:48:46;;;;;;;24.60;10.20;;;;;;;-6.13;69.18;98419.19;108214;1274;22551;-71
2022/01/08 03:51:15;;;;;;;24.30;10.50;;;;;;;-6.11;69.11;98416.98;108229;1273;22702;-71
2022/01/08 03:53:42;;;;;;;24.60;10.70;;;;;;;-6.09;68.87;98415.96;108226;1274;25328;-71
2022/01/08 03:56:09;;;;;;;21.80;9.80;;;;;;;-6.07;68.96;98413.56;108348;1274;22596;-71
2022/01/08 03:58:36;;;;;;;23.00;11.10;;;;;;;-6.05;68.72;98417.46;108204;1274;23384;-71
2022/01/08 04:01:03;;;;;;;24.20;11.40;;;;;;;-6.02;68.76;98412.89;108201;1274;22550;-71
2022/01/08 04:03:30;;;;;;;23.10;11.50;;;;;;;-6.01;68.75;98411.87;108201;1274;22562;-71
2022/01/08 04:05:57;;;;;;;27.90;10.50;;;;;;;-5.98;68.95;98412.18;108203;1273;22546;-70
2022/01/08 04:08:24;;;;;;;24.60;10.90;;;;;;;-5.98;68.81;98408.97;108257;1274;22528;-71
2022/01/08 04:10:51;;;;;;;26.70;11.40;;;;;;;-5.98;68.74;98407.27;108216;1274;24284;-71
2022/01/08 04:13:23;;;;;;;17.80;8.70;;;;;;;-5.96;68.57;98406.42;108216;1274;22551;-71
2022/01/08 04:15:54;;;;;;;22.80;11.60;;;;;;;-5.94;68.64;98404.89;108193;1274;22693;-71
2022/01/08 04:18:21;;;;;;;22.50;9.40;;;;;;;-5.93;68.69;98406.42;108217;1274;22540;-71
2022/01/08 04:23:22;;;;;;;24.60;11.30;;;;;;;-5.90;68.54;98412.16;108443;1274;22626;-70
2022/01/08 04:25:50;;;;;;;21.20;9.10;;;;;;;-5.90;68.78;98406.56;108431;1274;22553;-71
2022/01/08 04:28:17;;;;;;;25.50;11.50;;;;;;;-5.89;68.58;98403.50;108457;1274;22553;-70
2022/01/08 04:30:45;;;;;;;19.30;9.50;;;;;;;-5.89;68.52;98400.63;108491;1274;25490;-70
2022/01/08 04:33:12;;;;;;;17.80;9.00;;;;;;;-5.89;68.48;98403.67;108446;1274;22582;-71
2022/01/08 04:35:40;;;;;;;29.70;12.50;;;;;;;-5.88;68.29;98405.02;108452;1274;22781;-71
2022/01/08 04:38:07;;;;;;;27.90;11.30;;;;;;;-5.85;68.33;98412.80;108432;1273;22556;-71
2022/01/08 04:40:35;;;;;;;33.40;13.40;;;;;;;-5.83;68.54;98410.76;108454;1274;22572;-71
2022/01/08 04:43:03;;;;;;;25.30;12.70;;;;;;;-5.79;68.45;98406.66;108456;1274;22794;-72
2022/01/08 04:45:30;;;;;;;28.10;13.10;;;;;;;-5.75;68.94;98404.63;108444;1274;25486;-71
2022/01/08 04:47:59;;;;;;;29.80;12.60;;;;;;;-5.71;69.46;98400.70;108455;1274;22748;-73
2022/01/08 04:50:28;;;;;;;31.80;12.40;;;;;;;-5.70;69.73;98399.84;108430;1274;25302;-71
2022/01/08 04:52:56;;;;;;;31.90;13.30;;;;;;;-5.70;69.47;98403.74;108419;1274;22686;-72
2022/01/08 04:55:23;;;;;;;28.60;12.20;;;;;;;-5.69;69.24;98408.83;108447;1274;22711;-75
2022/01/08 04:57:50;;;;;;;24.50;12.30;;;;;;;-5.69;69.14;98414.94;108427;1274;22628;-71
2022/01/08 05:00:19;;;;;;;27.10;12.40;;;;;;;-5.69;68.89;98416.63;108432;1274;22616;-71
2022/01/08 05:02:47;;;;;;;25.40;12.10;;;;;;;-5.70;68.82;98413.58;108447;1274;22608;-71
2022/01/08 05:05:13;;;;;;;30.40;13.20;;;;;;;-5.69;68.90;98413.58;108438;1274;22556;-75
2022/01/08 05:07:40;;;;;;;34.10;12.60;;;;;;;-5.66;68.74;98413.41;108436;1274;22580;-72
2022/01/08 05:10:08;;;;;;;32.20;13.50;;;;;;;-5.63;68.68;98411.70;108450;1273;22625;-71
2022/01/08 05:12:36;;;;;;;30.40;13.20;;;;;;;-5.61;68.74;98412.35;108226;1274;25743;-72
2022/01/08 05:15:03;;;;;;;30.10;13.20;;;;;;;-5.58;68.91;98412.18;108306;1274;22570;-70
2022/01/08 05:17:35;;;;;;;30.20;12.60;;;;;;;-5.56;68.82;98417.27;108208;1274;22549;-70
2022/01/08 05:20:05;;;;;;;31.80;13.70;;;;;;;-5.54;68.88;98417.24;108202;1274;23291;-71
2022/01/08 05:25:19;;;;;;;42.00;16.00;;;;;;;-5.50;68.82;98418.59;108200;1272;22693;-71
2022/01/08 05:27:48;;;;;;;37.80;16.00;;;;;;;-5.48;68.85;98418.75;108175;1274;22702;-71
2022/01/08 05:30:17;;;;;;;44.90;17.90;;;;;;;-5.40;68.98;98418.20;108213;1274;22549;-71
2022/01/08 05:32:45;;;;;;;41.20;16.80;;;;;;;-5.33;69.46;98415.10;108203;1274;22737;-71
2022/01/08 05:35:12;;;;;;;39.00;16.40;;;;;;;-5.25;69.80;98417.77;108195;1274;24465;-72
2022/01/08 05:37:40;;;;;;;46.90;19.00;;;;;;;-5.23;70.20;98421.51;108212;1274;22609;-70
2022/01/08 05:40:08;;;;;;;40.80;18.20;;;;;;;-5.19;70.10;98430.81;108321;1274;22559;-70
2022/01/08 05:42:35;;;;;;;30.70;14.80;;;;;;;-5.15;69.99;98440.48;108257;1274;22578;-71
2022/01/08 05:45:03;;;;;;;34.40;14.70;;;;;;;-5.11;69.75;98443.52;108207;1274;22626;-73
2022/01/08 05:47:32;;;;;;;30.40;12.60;;;;;;;-5.07;69.59;98445.85;108179;1274;22561;-72
2022/01/08 05:49:59;;;;;;;29.10;12.60;;;;;;;-5.04;69.59;98441.94;108219;1274;22703;-75
2022/01/08 05:52:26;;;;;;;28.00;12.60;;;;;;;-5.01;69.46;98437.66;108226;1274;22624;-70
2022/01/08 05:54:53;;;;;;;29.40;12.20;;;;;;;-4.98;69.51;98430.00;108238;1274;22559;-71
2022/01/08 05:57:20;;;;;;;26.70;11.50;;;;;;;-4.94;69.38;98426.77;108272;1274;22541;-70
2022/01/08 05:59:47;;;;;;;48.40;16.80;;;;;;;-4.90;69.41;98425.20;108248;1274;22566;-72
2022/01/08 06:02:13;;;;;;;48.90;16.40;;;;;;;-4.86;69.25;98424.49;108257;1274;22714;-71
2022/01/08 06:04:40;;;;;;;52.30;17.50;;;;;;;-4.82;69.34;98422.93;108203;1274;22540;-71
2022/01/08 06:07:07;;;;;;;53.90;18.90;;;;;;;-4.78;69.15;98422.56;108224;1274;22551;-70
2022/01/08 06:09:34;;;;;;;60.70;20.30;;;;;;;-4.74;69.11;98418.96;108250;1274;23102;-72
2022/01/08 06:12:01;;;;;;;41.50;16.70;;;;;;;-4.71;69.02;98414.17;108249;1274;24279;-71
2022/01/08 06:14:28;;;;;;;58.60;20.80;;;;;;;-4.69;68.89;98412.30;108245;1274;25108;-70
2022/01/08 06:16:55;;;;;;;173.20;59.10;;;;;;;-4.65;68.86;98415.48;108258;1274;22544;-70
2022/01/08 06:19:22;;;;;;;115.80;43.10;;;;;;;-4.61;68.84;98416.99;108257;1272;22588;-71
2022/01/08 06:21:49;;;;;;;53.70;22.40;;;;;;;-4.59;68.87;98418.34;108216;1274;22778;-71
2022/01/08 06:24:16;;;;;;;43.70;19.30;;;;;;;-4.56;68.88;98416.61;108188;1274;22562;-70
2022/01/08 06:26:43;;;;;;;41.00;18.00;;;;;;;-4.51;68.88;98416.57;108190;1274;22575;-70
2022/01/08 06:29:10;;;;;;;38.90;19.20;;;;;;;-4.47;68.68;98417.39;108224;1274;22575;-71
2022/01/08 06:31:37;;;;;;;44.00;20.20;;;;;;;-4.38;69.16;98413.05;108333;1274;23317;-71
2022/01/08 06:34:04;;;;;;;57.70;27.50;;;;;;;-4.31;69.65;98415.88;108460;1274;22602;-74
2022/01/08 06:36:31;;;;;;;50.10;22.10;;;;;;;-4.26;70.32;98421.10;108219;1274;22634;-71
2022/01/08 06:38:58;;;;;;;48.40;20.60;;;;;;;-4.23;70.18;98419.89;108212;1274;22566;-71
2022/01/08 06:41:25;;;;;;;39.00;17.20;;;;;;;-4.20;69.94;98417.98;108214;1274;22567;-70
2022/01/08 06:43:52;;;;;;;40.60;20.00;;;;;;;-4.16;69.62;98418.11;108236;1274;22554;-71
2022/01/08 06:46:19;;;;;;;36.20;16.10;;;;;;;-4.12;69.28;98419.60;108212;1274;25496;-71
2022/01/08 06:48:46;;;;;;;31.90;14.60;;;;;;;-4.10;69.00;98417.88;108188;1274;24348;-71
2022/01/08 06:51:13;;;;;;;38.80;18.10;;;;;;;-4.10;68.99;98412.25;108210;1274;22569;-71
2022/01/08 06:53:40;;;;;;;38.90;16.50;;;;;;;-4.07;68.84;98411.89;108221;1274;22584;-71
2022/01/08 06:56:06;;;;;;;35.50;16.00;;;;;;;-4.03;68.78;98413.38;108214;1274;22570;-71
2022/01/08 06:58:34;;;;;;;40.70;18.00;;;;;;;-3.99;68.69;98411.81;108217;1274;22532;-71
2022/01/08 07:01:02;;;;;;;39.80;16.20;;;;;;;-3.97;68.69;98410.77;108218;1274;22551;-72
2022/01/08 07:03:29;;;;;;;30.90;13.70;;;;;;;-3.95;68.42;98408.72;108201;1274;22591;-74
2022/01/08 07:05:55;;;;;;;35.20;16.00;;;;;;;-3.96;68.39;98413.66;108209;1274;22594;-71
2022/01/08 07:08:22;;;;;;;42.80;17.50;;;;;;;-3.93;68.57;98407.67;108224;1274;24933;-72
2022/01/08 07:10:49;;;;;;;33.50;14.60;;;;;;;-3.89;68.41;98411.54;108205;1274;22576;-74
2022/01/08 07:13:16;;;;;;;30.60;15.00;;;;;;;-3.88;68.34;98409.15;108196;1274;24357;-71
2022/01/08 07:15:43;;;;;;;24.80;11.90;;;;;;;-3.86;68.33;98408.77;108235;1274;22707;-71
2022/01/08 07:18:10;;;;;;;27.90;12.80;;;;;;;-3.85;68.44;98407.56;108220;1274;22560;-71
2022/01/08 07:20:37;;;;;;;33.70;15.60;;;;;;;-3.82;68.39;98405.48;108239;1274;22605;-71
2022/01/08 07:23:04;;;;;;;24.70;10.70;;;;;;;-3.76;68.16;98405.42;108216;1274;22561;-71
2022/01/08 07:25:31;;;;;;;29.80;12.60;;;;;;;-3.73;68.07;98405.90;108210;1274;23416;-70
2022/01/08 07:27:58;;;;;;;33.90;14.10;;;;;;;-3.72;67.97;98401.98;108210;1274;22598;-70
2022/01/08 07:30:24;;;;;;;31.20;14.20;;;;;;;-3.68;67.99;98402.45;108223;1274;22584;-76
2022/01/08 07:32:52;;;;;;;34.20;15.90;;;;;;;-3.65;68.14;98403.09;108225;1272;22550;-72
2022/01/08 07:35:22;;;;;;;36.50;16.50;;;;;;;-3.59;67.95;98398.59;108285;1274;22554;-72
2022/01/08 07:37:51;;;;;;;26.00;12.40;;;;;;;-3.54;67.98;98394.95;108219;1274;22550;-73
2022/01/08 07:40:19;;;;;;;26.90;11.20;;;;;;;-3.49;67.64;98392.66;108241;1274;22809;-70
2022/01/08 07:42:47;;;;;;;53.60;23.80;;;;;;;-3.46;67.82;98393.14;108219;1274;22632;-71
2022/01/08 07:45:16;;;;;;;45.50;22.30;;;;;;;-3.40;67.99;98388.80;108259;1271;26513;-71
2022/01/08 07:47:43;;;;;;;53.20;24.50;;;;;;;-3.35;67.62;98388.59;108187;1271;22709;-74
2022/01/08 07:50:11;;;;;;;97.20;51.60;;;;;;;-3.25;68.33;98394.73;108213;1274;25311;-72
2022/01/08 07:52:37;;;;;;;55.80;29.70;;;;;;;-3.15;68.72;98397.16;108193;1274;22562;-72
2022/01/08 07:55:05;;;;;;;39.30;19.10;;;;;;;-3.09;69.04;98399.61;108182;1274;24430;-73
2022/01/08 07:57:32;;;;;;;50.30;20.10;;;;;;;-3.03;68.65;98400.52;108220;1274;22591;-72
2022/01/08 07:59:59;;;;;;;44.80;21.50;;;;;;;-2.96;68.15;98400.45;108190;1273;22559;-72
2022/01/08 08:02:26;;;;;;;49.10;22.00;;;;;;;-2.91;67.93;98401.73;108191;1274;22550;-74
2022/01/08 08:04:53;;;;;;;35.40;17.60;;;;;;;-2.86;67.93;98404.71;108206;1274;22556;-73
2022/01/08 08:07:36;;;;;;;31.90;14.60;;;;;;;-2.83;67.38;98399.73;108248;1274;23128;-71
2022/01/08 08:10:17;;;;;;;33.90;16.90;;;;;;;-2.81;67.12;98393.39;108215;1274;23157;-72
2022/01/08 08:12:45;;;;;;;51.30;24.10;;;;;;;-2.78;66.99;98395.73;108229;1273;22577;-74
2022/01/08 08:15:16;;;;;;;30.20;13.60;;;;;;;-2.74;67.04;98397.38;108241;1274;22546;-72
2022/01/08 08:17:43;;;;;;;31.10;16.30;;;;;;;-2.71;66.86;98392.23;108201;1274;22556;-72
2022/01/08 08:20:10;;;;;;;43.50;17.80;;;;;;;-2.69;66.66;98395.25;108232;1274;23971;-73
2022/01/08 08:22:38;;;;;;;35.50;17.30;;;;;;;-2.66;66.86;98400.82;108226;1274;23020;-72
2022/01/08 08:25:07;;;;;;;42.20;21.00;;;;;;;-2.62;66.81;98403.17;108200;1274;24130;-73
2022/01/08 08:27:34;;;;;;;40.30;19.10;;;;;;;-2.58;66.72;98403.96;108248;1274;22661;-75
2022/01/08 08:30:02;;;;;;;40.60;16.90;;;;;;;-2.55;66.57;98405.42;108241;1274;27832;-73
2022/01/08 08:32:28;;;;;;;49.80;25.60;;;;;;;-2.53;66.50;98410.86;108245;1274;25522;-73
2022/01/08 08:34:55;;;;;;;60.40;27.50;;;;;;;-2.46;66.72;98413.12;108279;1274;22626;-73
2022/01/08 08:37:22;;;;;;;52.40;22.10;;;;;;;-2.40;66.50;98412.85;108213;1274;22557;-72
2022/01/08 08:39:49;;;;;;;85.10;32.30;;;;;;;-2.35;66.64;98408.84;108193;1274;22603;-73
2022/01/08 08:42:16;;;;;;;46.00;21.40;;;;;;;-2.30;66.70;98409.27;108218;1274;22545;-73
2022/01/08 08:44:43;;;;;;;73.50;34.70;;;;;;;-2.28;66.30;98403.77;108252;1274;22574;-75
2022/01/08 08:47:10;;;;;;;100.10;36.30;;;;;;;-2.29;66.22;98402.93;108189;1274;22559;-74
2022/01/08 08:49:37;;;;;;;170.40;46.50;;;;;;;-2.25;66.05;98400.84;108166;1274;22567;-72
2022/01/08 08:52:04;;;;;;;96.00;31.20;;;;;;;-2.16;66.43;98398.61;108204;1274;22600;-71
2022/01/08 08:54:31;;;;;;;58.20;18.90;;;;;;;-2.13;66.13;98400.60;108267;1274;22576;-71
2022/01/08 08:56:59;;;;;;;119.30;32.10;;;;;;;-2.09;66.15;98400.55;108216;1274;22567;-72
2022/01/08 08:59:26;;;;;;;121.50;34.60;;;;;;;-2.07;65.70;98399.30;108198;1274;24259;-72
2022/01/08 09:01:54;;;;;;;123.50;33.90;;;;;;;-2.00;65.80;98399.52;108220;1274;22704;-72
2022/01/08 09:04:23;;;;;;;63.90;22.60;;;;;;;-1.95;65.77;98401.80;108208;1274;22580;-72
2022/01/08 09:06:50;;;;;;;57.80;22.10;;;;;;;-1.90;65.24;98402.05;108210;1274;22606;-75
2022/01/08 09:09:17;;;;;;;105.30;32.90;;;;;;;-1.83;66.02;98403.45;108196;1274;22590;-74
2022/01/08 09:11:44;;;;;;;132.40;52.40;;;;;;;-1.75;65.83;98399.02;108265;1274;22796;-74
2022/01/08 09:14:11;;;;;;;97.60;38.70;;;;;;;-1.68;65.71;98401.46;108436;1274;24228;-74
2022/01/08 09:16:44;;;;;;;174.70;71.50;;;;;;;-1.61;65.36;98399.95;108455;1274;24404;-70
2022/01/08 09:19:11;;;;;;;83.40;35.20;;;;;;;-1.54;65.06;98395.88;108450;1274;24395;-73
2022/01/08 09:21:38;;;;;;;74.40;36.20;;;;;;;-1.50;65.32;98400.05;108464;1274;22660;-72
2022/01/08 09:24:05;;;;;;;58.60;27.20;;;;;;;-1.43;66.16;98394.27;108432;1274;22540;-74
2022/01/08 09:26:32;;;;;;;64.50;30.20;;;;;;;-1.38;66.68;98392.98;108465;1274;22609;-73
2022/01/08 09:28:59;;;;;;;53.40;24.10;;;;;;;-1.33;66.20;98392.86;108522;1274;25360;-73
2022/01/08 09:31:26;;;;;;;47.70;21.70;;;;;;;-1.24;66.00;98387.73;108464;1274;22552;-70
2022/01/08 09:33:53;;;;;;;38.80;19.90;;;;;;;-1.22;65.00;98389.38;108430;1274;22565;-74
2022/01/08 09:36:20;;;;;;;39.00;18.60;;;;;;;-1.24;65.20;98387.54;108451;1274;23983;-73
2022/01/08 09:38:47;;;;;;;34.20;17.20;;;;;;;-1.23;64.62;98387.17;108475;1274;22581;-73
2022/01/08 09:41:14;;;;;;;37.10;15.80;;;;;;;-1.25;64.07;98384.15;108429;1271;22550;-72
2022/01/08 09:43:41;;;;;;;38.10;18.80;;;;;;;-1.27;64.20;98384.36;108447;1274;22570;-74
2022/01/08 09:46:08;;;;;;;35.00;15.70;;;;;;;-1.26;64.17;98384.69;108404;1274;25310;-75
2022/01/08 09:48:35;;;;;;;45.80;19.80;;;;;;;-1.21;64.20;98380.64;108422;1274;22629;-73
2022/01/08 09:51:02;;;;;;;42.60;19.90;;;;;;;-1.18;64.13;98380.57;108455;1274;23321;-74
2022/01/08 09:53:29;;;;;;;64.20;23.10;;;;;;;-1.14;63.98;98373.83;108436;1274;22571;-77
2022/01/08 09:55:56;;;;;;;55.20;19.80;;;;;;;-1.12;63.90;98374.98;108418;1274;22566;-77
2022/01/08 09:58:23;;;;;;;44.20;17.90;;;;;;;-1.10;63.47;98375.13;108435;1274;22565;-76
2022/01/08 10:00:50;;;;;;;64.60;24.50;;;;;;;-1.06;64.05;98370.56;108352;1274;22546;-76
2022/01/08 10:03:17;;;;;;;50.90;19.40;;;;;;;-0.97;64.19;98368.65;108414;1274;22664;-76
2022/01/08 10:05:49;;;;;;;64.80;22.70;;;;;;;-0.92;63.81;98367.18;108469;1274;22540;-74
2022/01/08 10:08:24;;;;;;;105.10;29.40;;;;;;;-0.88;64.02;98367.76;108500;1274;22518;-75
2022/01/08 10:11:09;;;;;;;98.60;29.30;;;;;;;-0.84;64.09;98370.39;108495;1274;22564;-75
2022/01/08 10:13:40;;;;;;;90.60;27.80;;;;;;;-0.79;63.51;98373.54;108469;1274;22571;-74
2022/01/08 10:19:02;;;;;;;74.70;28.40;;;;;;;-0.80;63.45;98374.05;108453;1274;22559;-74
2022/01/08 10:21:34;;;;;;;83.20;31.40;;;;;;;-0.79;63.17;98368.90;108446;1274;22547;-73
2022/01/08 10:24:08;;;;;;;67.20;27.70;;;;;;;-0.70;63.58;98367.17;108440;1274;22550;-77
2022/01/08 10:26:38;;;;;;;64.80;24.70;;;;;;;-0.65;63.42;98367.20;108420;1274;25316;-73
2022/01/08 10:29:11;;;;;;;87.20;31.30;;;;;;;-0.60;63.26;98362.11;108454;1274;22706;-74
2022/01/08 10:31:50;;;;;;;98.40;34.30;;;;;;;-0.56;62.92;98359.13;108446;1274;22591;-74
2022/01/08 10:34:20;;;;;;;74.70;27.60;;;;;;;-0.51;63.07;98358.64;108450;1274;22591;-75
2022/01/08 10:37:07;;;;;;;57.40;24.50;;;;;;;-0.44;62.86;98356.74;108418;1274;22566;-77
2022/01/08 10:39:43;;;;;;;53.30;21.70;;;;;;;-0.39;63.02;98346.88;108429;1274;22557;-74
2022/01/08 10:42:16;;;;;;;63.00;28.30;;;;;;;-0.31;63.18;98346.34;108460;1274;22697;-75
2022/01/08 10:44:49;;;;;;;53.00;22.00;;;;;;;-0.29;63.16;98349.88;108489;1274;22556;-73
2022/01/08 10:47:18;;;;;;;48.50;22.60;;;;;;;-0.29;62.20;98350.23;108429;1274;22582;-74
2022/01/08 10:50:06;;;;;;;36.40;16.80;;;;;;;-0.31;62.42;98351.80;108432;1274;25278;-74
2022/01/08 10:52:46;;;;;;;41.20;19.40;;;;;;;-0.31;62.51;98349.58;108457;1274;22636;-76
2022/01/08 10:55:13;;;;;;;51.80;19.40;;;;;;;-0.34;62.69;98350.50;108408;1274;22573;-73
2022/01/08 10:57:46;;;;;;;44.60;17.80;;;;;;;-0.31;62.91;98351.98;108429;1274;22577;-74
2022/01/08 11:00:15;;;;;;;54.50;23.90;;;;;;;-0.27;62.82;98352.73;108454;1274;22586;-74
2022/01/08 11:02:44;;;;;;;43.60;19.10;;;;;;;-0.27;62.26;98352.55;108477;1274;22561;-75
2022/01/08 11:05:12;;;;;;;52.50;21.90;;;;;;;-0.29;62.24;98351.06;108499;1274;22555;-73
2022/01/08 11:07:41;;;;;;;34.30;14.60;;;;;;;-0.32;62.50;98350.45;108443;1274;22540;-73
2022/01/08 11:10:16;;;;;;;45.30;19.30;;;;;;;-0.36;62.28;98349.55;108481;1274;22620;-74
2022/01/08 11:12:45;;;;;;;38.10;16.40;;;;;;;-0.37;62.30;98350.26;108449;1274;22684;-72
2022/01/08 11:17:52;;;;;;;41.90;18.10;;;;;;;-0.35;61.96;98346.61;108458;1274;22582;-73
2022/01/08 11:20:22;;;;;;;29.80;14.80;;;;;;;-0.35;62.54;98345.92;108434;1273;22674;-72
2022/01/08 11:22:51;;;;;;;39.30;17.90;;;;;;;-0.30;61.91;98341.00;108448;1274;25340;-74
2022/01/08 11:25:18;;;;;;;41.30;17.90;;;;;;;-0.37;61.23;98338.63;108422;1274;22720;-72
2022/01/08 11:28:07;;;;;;;53.70;20.20;;;;;;;-0.40;61.73;98337.84;108427;1274;23121;-72
2022/01/08 11:30:44;;;;;;;39.20;16.50;;;;;;;-0.38;62.12;98339.15;108423;1274;25658;-75
2022/01/08 11:33:19;;;;;;;29.50;13.00;;;;;;;-0.34;62.14;98337.17;108421;1274;22588;-77
2022/01/08 11:35:47;;;;;;;87.00;31.80;;;;;;;-0.34;61.75;98336.31;108439;1274;22573;-73
2022/01/08 11:38:19;;;;;;;110.50;36.70;;;;;;;-0.32;61.89;98338.66;108422;1273;25223;-75
2022/01/08 11:40:47;;;;;;;103.50;37.30;;;;;;;-0.37;61.53;98344.09;108439;1274;24264;-77
2022/01/08 11:43:19;;;;;;;88.10;33.60;;;;;;;-0.36;62.00;98340.98;108442;1274;22548;-76
2022/01/08 11:45:56;;;;;;;49.10;21.80;;;;;;;-0.34;62.00;98341.60;108440;1274;22578;-77